createdAt,value
2022-07-29T00:00:55.126Z,62.40
2022-07-29T00:03:22.762Z,63.30
2022-07-29T00:05:50.313Z,62.70
2022-07-29T00:08:17.888Z,62.70
2022-07-29T00:10:45.461Z,62.90
2022-07-29T00:13:13.094Z,63.10
2022-07-29T00:15:41.447Z,63.90
2022-07-29T00:18:09.020Z,63.90
2022-07-29T00:20:37.382Z,65.00
2022-07-29T00:23:04.966Z,64.20
2022-07-29T00:25:33.885Z,64.30
2022-07-29T00:28:00.892Z,64.20
2022-07-29T00:30:29.245Z,64.50
2022-07-29T00:32:56.821Z,64.50
2022-07-29T00:35:42.334Z,64.20
2022-07-29T00:38:09.897Z,64.60
2022-07-29T00:40:37.470Z,64.90
2022-07-29T00:43:05.064Z,65.30
2022-07-29T00:45:32.640Z,65.80
2022-07-29T00:48:00.213Z,66.20
2022-07-29T00:50:28.575Z,66.90
2022-07-29T00:52:56.149Z,66.80
2022-07-29T00:55:23.722Z,66.50
2022-07-29T00:57:51.336Z,65.90
2022-07-29T01:00:18.911Z,66.70
2022-07-29T01:02:46.485Z,67.00
2022-07-29T01:05:14.858Z,67.80
2022-07-29T01:07:42.430Z,67.50
2022-07-29T01:10:10.890Z,67.50
2022-07-29T01:12:38.465Z,67.50
2022-07-29T01:15:07.024Z,68.50
2022-07-29T01:17:53.683Z,68.40
2022-07-29T01:20:41.912Z,68.10
2022-07-29T01:23:22.068Z,68.40
2022-07-29T01:26:13.952Z,68.40
2022-07-29T01:29:18.362Z,68.90
2022-07-29T01:32:04.208Z,69.30
2022-07-29T01:34:31.726Z,70.00
2022-07-29T01:37:07.857Z,70.40
2022-07-29T01:39:35.429Z,70.80
2022-07-29T01:42:11.718Z,71.60
2022-07-29T01:45:00.470Z,71.10
2022-07-29T01:47:33.788Z,71.20
2022-07-29T01:50:02.139Z,72.20
2022-07-29T01:52:32.409Z,72.20
2022-07-29T01:55:00.012Z,71.80
2022-07-29T01:57:27.588Z,71.30
2022-07-29T01:59:55.163Z,71.90
2022-07-29T02:02:23.523Z,74.00
2022-07-29T02:04:51.151Z,73.30
2022-07-29T02:07:19.449Z,73.40
2022-07-29T02:09:47.044Z,73.40
2022-07-29T02:12:15.385Z,73.80
2022-07-29T02:14:42.959Z,73.80
2022-07-29T02:17:10.562Z,74.40
2022-07-29T02:19:38.138Z,74.70
2022-07-29T02:22:05.720Z,74.90
2022-07-29T02:24:34.309Z,74.70
2022-07-29T02:27:01.897Z,75.20
2022-07-29T02:29:30.235Z,76.20
2022-07-29T02:31:57.828Z,76.30
2022-07-29T02:34:25.405Z,76.20
2022-07-29T02:36:53.750Z,77.20
2022-07-29T02:39:21.339Z,77.10
2022-07-29T02:41:49.682Z,77.60
2022-07-29T02:44:20.560Z,77.60
2022-07-29T02:46:56.538Z,77.90
2022-07-29T02:49:27.801Z,77.50
2022-07-29T02:51:56.095Z,77.80
2022-07-29T02:54:23.699Z,77.70
2022-07-29T02:56:52.042Z,78.10
2022-07-29T02:59:19.619Z,78.80
2022-07-29T03:01:48.011Z,78.30
2022-07-29T03:04:15.812Z,77.90
2022-07-29T03:06:43.893Z,77.70
2022-07-29T03:09:13.602Z,77.70
2022-07-29T03:11:46.166Z,77.50
2022-07-29T03:14:06.694Z,78.10
2022-07-29T03:16:38.058Z,78.70
2022-07-29T03:19:02.633Z,79.70
2022-07-29T03:21:30.206Z,79.70
2022-07-29T03:23:57.804Z,80.30
2022-07-29T03:26:25.373Z,80.90
2022-07-29T03:28:52.956Z,81.40
2022-07-29T03:31:21.820Z,81.90
2022-07-29T03:33:49.325Z,82.30
2022-07-29T03:36:16.900Z,82.90
2022-07-29T03:38:45.271Z,83.20
2022-07-29T03:41:12.836Z,82.80
2022-07-29T03:43:49.053Z,83.60
2022-07-29T03:46:08.840Z,83.50
2022-07-29T03:48:37.173Z,84.30
2022-07-29T03:51:04.692Z,84.30
2022-07-29T03:53:32.295Z,83.80
2022-07-29T03:55:59.870Z,84.20
2022-07-29T03:58:27.452Z,83.60
2022-07-29T04:00:55.045Z,83.10
2022-07-29T04:03:22.678Z,83.40
2022-07-29T04:06:04.999Z,83.70
2022-07-29T04:08:32.601Z,84.00
2022-07-29T04:11:00.936Z,84.90
2022-07-29T04:13:28.538Z,84.80
2022-07-29T04:15:56.146Z,84.30
2022-07-29T04:18:23.686Z,85.00
2022-07-29T04:20:51.305Z,84.60
2022-07-29T04:23:19.660Z,85.70
2022-07-29T04:25:47.237Z,85.70
2022-07-29T04:28:15.617Z,86.80
2022-07-29T04:30:44.030Z,87.10
2022-07-29T04:33:12.342Z,87.60
2022-07-29T04:35:49.862Z,87.60
2022-07-29T04:38:07.600Z,88.00
2022-07-29T04:40:35.961Z,89.60
2022-07-29T04:43:06.067Z,89.10
2022-07-29T04:45:32.713Z,89.40
2022-07-29T04:48:00.318Z,89.40
2022-07-29T04:50:27.941Z,89.80
2022-07-29T04:52:56.294Z,90.50
2022-07-29T04:55:23.867Z,90.50
2022-07-29T04:57:51.471Z,90.80
2022-07-29T05:00:19.152Z,91.00
2022-07-29T05:02:46.761Z,91.20
2022-07-29T05:05:15.042Z,91.30
2022-07-29T05:07:41.914Z,91.60
2022-07-29T05:10:09.537Z,91.70
2022-07-29T05:12:37.144Z,91.70
2022-07-29T05:15:04.774Z,91.70
2022-07-29T05:17:33.138Z,91.80
2022-07-29T05:20:01.706Z,91.80
2022-07-29T05:22:29.278Z,92.00
2022-07-29T05:24:57.633Z,92.50
2022-07-29T05:27:25.609Z,92.50
2022-07-29T05:29:53.204Z,92.10
2022-07-29T05:32:21.555Z,92.10
2022-07-29T05:34:51.818Z,92.00
2022-07-29T05:37:17.647Z,91.70
2022-07-29T05:39:47.133Z,91.70
2022-07-29T05:42:13.721Z,91.70
2022-07-29T05:44:41.306Z,91.60
2022-07-29T05:47:09.659Z,91.50
2022-07-29T05:49:37.339Z,91.50
2022-07-29T05:52:04.825Z,91.30
2022-07-29T05:54:32.409Z,91.30
2022-07-29T05:57:00.299Z,91.20
2022-07-29T05:59:30.425Z,91.20
2022-07-29T06:01:55.525Z,91.20
2022-07-29T06:04:23.875Z,90.70
2022-07-29T06:06:52.190Z,90.40
2022-07-29T06:09:19.756Z,90.40
2022-07-29T06:11:47.369Z,90.50
2022-07-29T06:14:15.154Z,90.60
2022-07-29T06:16:43.358Z,90.60
2022-07-29T06:19:10.958Z,90.60
2022-07-29T06:21:38.670Z,90.60
2022-07-29T06:24:06.234Z,90.60
2022-07-29T06:26:39.239Z,90.50
2022-07-29T06:29:01.450Z,90.40
2022-07-29T06:31:29.034Z,90.30
2022-07-29T06:33:57.416Z,89.30
2022-07-29T06:36:25.772Z,88.60
2022-07-29T06:38:53.356Z,88.60
2022-07-29T06:41:21.734Z,88.00
2022-07-29T06:43:51.932Z,87.10
2022-07-29T06:46:17.667Z,87.00
2022-07-29T06:48:45.307Z,86.90
2022-07-29T06:51:12.837Z,86.10
2022-07-29T06:53:40.401Z,83.20
2022-07-29T06:56:09.010Z,82.40
2022-07-29T06:58:36.583Z,82.30
2022-07-29T07:01:04.992Z,80.50
2022-07-29T07:03:32.628Z,80.40
2022-07-29T07:06:00.972Z,78.60
2022-07-29T07:08:28.554Z,78.60
2022-07-29T07:10:56.935Z,77.60
2022-07-29T07:13:25.276Z,77.20
2022-07-29T07:15:52.852Z,77.10
2022-07-29T07:18:20.477Z,75.90
2022-07-29T07:20:48.049Z,75.00
2022-07-29T07:23:15.662Z,74.40
2022-07-29T07:25:43.808Z,73.50
2022-07-29T07:28:11.382Z,72.60
2022-07-29T07:30:39.740Z,68.70
2022-07-29T07:33:07.397Z,68.40
2022-07-29T07:35:34.980Z,68.10
2022-07-29T07:38:03.325Z,66.60
2022-07-29T07:40:30.935Z,67.10
2022-07-29T07:42:59.279Z,66.50
2022-07-29T07:45:26.930Z,66.50
2022-07-29T07:47:54.468Z,66.40
2022-07-29T07:50:22.085Z,66.40
2022-07-29T07:52:52.746Z,66.50
2022-07-29T07:55:20.378Z,66.40
2022-07-29T07:57:48.721Z,66.20
2022-07-29T08:00:16.304Z,66.20
2022-07-29T08:02:46.765Z,66.20
2022-07-29T08:05:15.361Z,64.40
2022-07-29T08:07:42.945Z,64.30
2022-07-29T08:10:10.560Z,63.90
2022-07-29T08:12:38.144Z,63.80
2022-07-29T08:15:05.845Z,63.00
2022-07-29T08:17:35.367Z,62.50
2022-07-29T08:20:01.055Z,62.50
2022-07-29T08:22:28.626Z,62.00
2022-07-29T08:24:56.240Z,61.50
2022-07-29T08:27:42.413Z,61.10
2022-07-29T08:29:51.398Z,60.40
2022-07-29T08:32:36.916Z,60.00
2022-07-29T08:34:46.576Z,59.80
2022-07-29T08:37:14.165Z,59.30
2022-07-29T08:39:41.775Z,59.20
2022-07-29T08:42:10.115Z,58.80
2022-07-29T08:44:37.700Z,58.80
2022-07-29T08:47:06.082Z,59.30
2022-07-29T08:49:37.150Z,59.20
2022-07-29T08:52:04.735Z,59.70
2022-07-29T08:54:32.369Z,59.10
2022-07-29T08:56:59.943Z,58.80
2022-07-29T08:59:27.530Z,58.30
2022-07-29T09:01:55.577Z,57.90
2022-07-29T09:04:23.473Z,58.00
2022-07-29T09:06:51.100Z,57.90
2022-07-29T09:09:19.447Z,57.70
2022-07-29T09:11:47.801Z,57.50
2022-07-29T09:14:15.378Z,57.40
2022-07-29T09:16:53.783Z,56.60
2022-07-29T09:19:32.196Z,56.40
2022-07-29T09:21:59.851Z,56.20
2022-07-29T09:24:27.362Z,56.10
2022-07-29T09:26:55.156Z,56.00
2022-07-29T09:29:22.598Z,55.60
2022-07-29T09:31:50.267Z,55.10
2022-07-29T09:34:23.713Z,54.90
2022-07-29T09:36:52.327Z,55.10
2022-07-29T09:39:38.712Z,54.90
2022-07-29T09:42:07.254Z,54.90
2022-07-29T09:44:43.538Z,54.80
2022-07-29T09:47:11.521Z,54.40
2022-07-29T09:49:59.869Z,54.20
2022-07-29T09:52:27.797Z,53.80
2022-07-29T09:54:55.370Z,53.90
2022-07-29T09:57:27.254Z,53.70
2022-07-29T09:59:57.330Z,53.70
2022-07-29T10:02:24.904Z,53.70
2022-07-29T10:04:52.489Z,53.50
2022-07-29T10:07:20.880Z,52.90
2022-07-29T10:09:51.165Z,53.00
2022-07-29T10:12:18.746Z,52.80
2022-07-29T10:14:47.128Z,52.20
2022-07-29T10:17:14.704Z,52.20
2022-07-29T10:19:42.286Z,51.60
2022-07-29T10:22:10.184Z,51.30
2022-07-29T10:24:37.759Z,51.40
2022-07-29T10:27:06.121Z,50.90
2022-07-29T10:29:34.069Z,50.90
2022-07-29T10:32:25.948Z,50.80
2022-07-29T10:35:17.021Z,49.80
2022-07-29T10:37:47.528Z,49.80
2022-07-29T10:40:48.195Z,49.60
2022-07-29T10:43:21.499Z,49.70
2022-07-29T10:45:50.209Z,48.60
2022-07-29T10:48:17.476Z,48.50
2022-07-29T10:50:53.911Z,48.70
2022-07-29T10:53:22.286Z,47.90
2022-07-29T10:55:50.625Z,47.60
2022-07-29T10:58:18.835Z,47.60
2022-07-29T11:00:46.679Z,47.40
2022-07-29T11:03:35.483Z,47.00
2022-07-29T11:06:03.105Z,46.90
2022-07-29T11:08:30.678Z,46.70
2022-07-29T11:11:22.202Z,48.10
2022-07-29T11:13:49.279Z,47.00
2022-07-29T11:16:16.700Z,46.90
2022-07-29T11:19:13.120Z,46.80
2022-07-29T11:21:55.390Z,46.90
2022-07-29T11:24:18.602Z,46.30
2022-07-29T11:26:42.786Z,45.90
2022-07-29T11:29:20.362Z,45.00
2022-07-29T11:31:47.948Z,45.00
2022-07-29T11:37:06.777Z,45.60
2022-07-29T11:39:37.743Z,45.80
2022-07-29T11:42:32.332Z,45.30
2022-07-29T11:45:41.520Z,45.60
2022-07-29T11:47:38.142Z,45.50
2022-07-29T11:50:04.876Z,44.00
2022-07-29T11:52:49.943Z,44.00
2022-07-29T11:55:11.732Z,44.40
2022-07-29T11:57:39.379Z,44.30
2022-07-29T12:00:09.799Z,44.80
2022-07-29T12:02:41.453Z,44.70
2022-07-29T12:05:10.728Z,44.60
2022-07-29T12:07:01.565Z,45.60
2022-07-29T12:07:36.544Z,44.70
2022-07-29T12:10:04.118Z,45.00
2022-07-29T12:12:31.694Z,44.50
2022-07-29T12:14:59.306Z,43.90
2022-07-29T12:17:26.879Z,43.30
2022-07-29T12:19:54.447Z,43.40
2022-07-29T12:22:28.015Z,43.10
2022-07-29T12:25:02.297Z,43.00
2022-07-29T12:27:29.244Z,43.00
2022-07-29T12:29:58.476Z,42.90
2022-07-29T12:32:26.124Z,42.20
2022-07-29T12:34:53.625Z,42.10
2022-07-29T12:37:21.239Z,42.10
2022-07-29T12:39:49.580Z,41.30
2022-07-29T12:42:18.691Z,41.30
2022-07-29T12:44:44.770Z,41.20
2022-07-29T12:47:12.348Z,41.10
2022-07-29T12:49:39.916Z,40.90
2022-07-29T12:52:25.806Z,40.80
2022-07-29T12:54:53.379Z,40.80
2022-07-29T12:57:20.952Z,40.80
2022-07-29T12:59:48.567Z,40.70
2022-07-29T13:02:22.329Z,40.50
2022-07-29T13:04:59.055Z,40.40
2022-07-29T13:07:55.757Z,40.20
2022-07-29T13:09:54.223Z,40.30
2022-07-29T13:12:22.604Z,40.50
2022-07-29T13:14:50.950Z,40.40
2022-07-29T13:17:32.971Z,40.40
2022-07-29T13:20:08.858Z,40.30
2022-07-29T13:22:34.544Z,40.40
2022-07-29T13:25:02.964Z,41.10
2022-07-29T13:27:31.340Z,41.60
2022-07-29T13:29:58.850Z,41.50
2022-07-29T13:32:29.302Z,41.70
2022-07-29T13:34:56.845Z,41.90
2022-07-29T13:37:25.176Z,42.10
2022-07-29T13:39:53.376Z,42.00
2022-07-29T13:42:20.385Z,42.30
2022-07-29T13:44:47.959Z,42.30
2022-07-29T13:47:15.572Z,42.40
2022-07-29T13:49:43.904Z,42.40
2022-07-29T13:52:11.498Z,42.40
2022-07-29T13:54:42.711Z,42.70
2022-07-29T13:57:09.276Z,42.70
2022-07-29T13:59:36.850Z,43.00
2022-07-29T14:02:05.231Z,41.80
2022-07-29T14:04:33.625Z,41.60
2022-07-29T14:07:03.547Z,41.60
2022-07-29T14:09:28.751Z,41.50
2022-07-29T14:11:56.662Z,41.30
2022-07-29T14:14:23.900Z,41.20
2022-07-29T14:16:52.475Z,40.80
2022-07-29T14:19:19.077Z,40.80
2022-07-29T14:21:46.641Z,40.70
2022-07-29T14:24:18.036Z,40.40
2022-07-29T14:26:41.820Z,40.10
2022-07-29T14:29:09.404Z,39.90
2022-07-29T14:31:37.824Z,39.40
2022-07-29T14:34:06.137Z,39.10
2022-07-29T14:36:33.712Z,39.10
2022-07-29T14:39:02.092Z,39.10
2022-07-29T14:41:30.435Z,39.00
2022-07-29T14:43:58.008Z,39.10
2022-07-29T14:46:25.661Z,38.70
2022-07-29T14:48:53.233Z,38.30
2022-07-29T14:51:20.771Z,38.50
2022-07-29T14:53:48.404Z,38.30
2022-07-29T14:56:36.215Z,38.50
2022-07-29T14:58:51.500Z,38.40
2022-07-29T15:01:11.232Z,38.20
2022-07-29T15:03:38.758Z,38.20
2022-07-29T15:06:06.326Z,38.40
2022-07-29T15:08:34.510Z,38.30
2022-07-29T15:11:02.098Z,38.00
2022-07-29T15:13:29.666Z,38.00
2022-07-29T15:16:00.181Z,37.80
2022-07-29T15:18:26.390Z,37.90
2022-07-29T15:20:53.954Z,37.90
2022-07-29T15:23:21.587Z,37.50
2022-07-29T15:25:49.171Z,37.50
2022-07-29T15:28:16.745Z,37.10
2022-07-29T15:30:45.324Z,37.40
2022-07-29T15:33:12.898Z,38.00
2022-07-29T15:35:41.240Z,37.80
2022-07-29T15:38:08.882Z,37.80
2022-07-29T15:40:36.446Z,37.70
2022-07-29T15:43:06.960Z,37.20
2022-07-29T15:45:40.833Z,37.70
2022-07-29T15:48:07.824Z,38.00
2022-07-29T15:50:35.398Z,37.70
2022-07-29T15:53:03.053Z,37.80
2022-07-29T15:55:30.617Z,37.70
2022-07-29T15:58:00.641Z,37.50
2022-07-29T16:00:25.804Z,37.40
2022-07-29T16:02:53.377Z,37.90
2022-07-29T16:05:20.952Z,37.30
2022-07-29T16:07:48.566Z,37.60
2022-07-29T16:10:16.139Z,37.40
2022-07-29T16:12:43.723Z,37.10
2022-07-29T16:15:11.384Z,37.10
2022-07-29T16:17:39.738Z,37.40
2022-07-29T16:20:07.450Z,37.40
2022-07-29T16:22:35.408Z,37.50
2022-07-29T16:25:02.992Z,37.60
2022-07-29T16:27:35.412Z,37.20
2022-07-29T16:29:58.968Z,37.60
2022-07-29T16:32:26.503Z,37.10
2022-07-29T16:34:54.854Z,37.30
2022-07-29T16:37:22.498Z,37.20
2022-07-29T16:39:50.081Z,37.10
2022-07-29T16:42:37.067Z,36.80
2022-07-29T16:44:46.029Z,36.50
2022-07-29T16:47:13.600Z,36.50
2022-07-29T16:49:41.945Z,37.00
2022-07-29T16:52:09.549Z,37.00
2022-07-29T16:54:37.130Z,37.10
2022-07-29T16:57:04.695Z,37.10
2022-07-29T16:59:32.309Z,37.00
2022-07-29T17:02:00.709Z,37.40
2022-07-29T17:04:28.228Z,36.80
2022-07-29T17:06:56.130Z,36.60
2022-07-29T17:09:23.412Z,36.10
2022-07-29T17:11:53.359Z,35.70
2022-07-29T17:14:18.610Z,36.00
2022-07-29T17:16:55.012Z,36.40
2022-07-29T17:19:13.759Z,36.70
2022-07-29T17:21:48.371Z,36.70
2022-07-29T17:24:09.724Z,37.30
2022-07-29T17:26:37.289Z,37.20
2022-07-29T17:29:04.922Z,37.20
2022-07-29T17:31:32.537Z,36.90
2022-07-29T17:34:00.177Z,37.00
2022-07-29T17:36:27.674Z,37.30
2022-07-29T17:38:55.259Z,37.40
2022-07-29T17:41:22.833Z,37.50
2022-07-29T17:43:50.811Z,37.60
2022-07-29T17:46:18.474Z,38.00
2022-07-29T17:48:45.985Z,38.50
2022-07-29T17:51:14.339Z,39.20
2022-07-29T17:53:42.681Z,39.60
2022-07-29T17:56:10.276Z,39.60
2022-07-29T17:58:38.647Z,40.50
2022-07-29T18:01:07.058Z,41.30
2022-07-29T18:03:34.583Z,40.90
2022-07-29T18:06:03.240Z,41.30
2022-07-29T18:08:30.814Z,41.20
2022-07-29T18:10:58.389Z,41.30
2022-07-29T18:13:26.760Z,41.90
2022-07-29T18:15:58.748Z,42.50
2022-07-29T18:18:22.677Z,42.20
2022-07-29T18:20:50.280Z,42.60
2022-07-29T18:23:17.854Z,43.00
2022-07-29T18:25:45.497Z,43.20
2022-07-29T18:28:13.357Z,43.70
2022-07-29T18:30:41.689Z,44.40
2022-07-29T18:33:24.687Z,44.40
2022-07-29T18:35:36.876Z,44.80
2022-07-29T18:38:04.440Z,45.10
2022-07-29T18:40:32.024Z,45.40
2022-07-29T18:42:59.628Z,45.70
2022-07-29T18:45:28.686Z,46.30
2022-07-29T18:47:55.545Z,46.30
2022-07-29T18:50:28.598Z,46.60
2022-07-29T18:52:51.697Z,47.00
2022-07-29T18:55:19.262Z,46.60
2022-07-29T18:57:56.192Z,46.90
2022-07-29T19:00:16.034Z,47.80
2022-07-29T19:02:43.671Z,47.20
2022-07-29T19:05:11.518Z,47.50
2022-07-29T19:07:39.091Z,47.80
2022-07-29T19:10:06.705Z,48.10
2022-07-29T19:12:34.318Z,48.30
2022-07-29T19:15:02.660Z,49.00
2022-07-29T19:17:30.239Z,48.90
2022-07-29T19:19:57.858Z,49.20
2022-07-29T19:22:25.442Z,49.40
2022-07-29T19:24:53.016Z,49.80
2022-07-29T19:27:20.993Z,49.60
2022-07-29T19:29:48.610Z,49.90
2022-07-29T19:32:25.302Z,50.40
2022-07-29T19:34:49.848Z,50.40
2022-07-29T19:37:13.299Z,50.30
2022-07-29T19:39:41.650Z,50.50
2022-07-29T19:42:09.264Z,50.50
2022-07-29T19:44:36.838Z,50.80
2022-07-29T19:47:04.412Z,51.20
2022-07-29T19:49:32.032Z,51.60
2022-07-29T19:52:00.377Z,52.20
2022-07-29T19:54:27.953Z,52.20
2022-07-29T19:56:57.416Z,53.20
2022-07-29T19:59:24.805Z,52.80
2022-07-29T20:01:53.197Z,54.10
2022-07-29T20:04:20.769Z,53.50
2022-07-29T20:06:48.374Z,53.30
2022-07-29T20:09:20.469Z,53.50
2022-07-29T20:11:43.905Z,53.40
2022-07-29T20:14:11.490Z,53.60
2022-07-29T20:16:39.064Z,53.60
2022-07-29T20:19:07.435Z,54.20
2022-07-29T20:21:35.787Z,54.60
2022-07-29T20:24:03.391Z,54.60
2022-07-29T20:26:30.995Z,55.00
2022-07-29T20:28:58.558Z,55.20
2022-07-29T20:31:26.194Z,55.10
2022-07-29T20:33:54.091Z,55.50
2022-07-29T20:36:21.665Z,55.80
2022-07-29T20:38:49.230Z,55.60
2022-07-29T20:41:16.863Z,55.80
2022-07-29T20:43:44.440Z,56.10
2022-07-29T20:46:12.092Z,56.30
2022-07-29T20:48:39.775Z,56.60
2022-07-29T20:51:07.189Z,57.00
2022-07-29T20:53:34.783Z,57.40
2022-07-29T20:56:02.426Z,57.30
2022-07-29T20:58:30.002Z,57.70
2022-07-29T21:00:57.585Z,58.10
2022-07-29T21:03:26.212Z,58.80
2022-07-29T21:05:53.786Z,58.80
2022-07-29T21:08:21.361Z,58.40
2022-07-29T21:10:48.984Z,58.60
2022-07-29T21:13:16.550Z,59.10
2022-07-29T21:15:44.165Z,58.80
2022-07-29T21:18:11.989Z,59.20
2022-07-29T21:20:39.552Z,59.70
2022-07-29T21:23:07.136Z,60.20
2022-07-29T21:25:34.750Z,60.70
2022-07-29T21:28:20.671Z,61.10
2022-07-29T21:30:48.232Z,61.50
2022-07-29T21:33:15.856Z,62.10
2022-07-29T21:36:06.884Z,63.30
2022-07-29T21:38:11.791Z,63.20
2022-07-29T21:40:39.366Z,62.80
2022-07-29T21:43:06.941Z,63.20
2022-07-29T21:45:34.554Z,63.50
2022-07-29T21:48:02.126Z,63.80
2022-07-29T21:50:29.701Z,64.00
2022-07-29T21:52:57.610Z,63.80
2022-07-29T21:55:26.266Z,64.20
2022-07-29T21:57:53.546Z,65.20
2022-07-29T22:00:22.173Z,65.20
2022-07-29T22:02:49.708Z,65.00
2022-07-29T22:05:18.050Z,65.90
2022-07-29T22:07:56.521Z,65.80
2022-07-29T22:10:13.238Z,66.40
2022-07-29T22:12:40.822Z,67.30
2022-07-29T22:15:08.533Z,66.60
2022-07-29T22:17:36.876Z,67.50
2022-07-29T22:20:04.550Z,67.50
2022-07-29T22:22:32.163Z,68.10
2022-07-29T22:25:00.060Z,68.30
2022-07-29T22:27:27.637Z,68.70
2022-07-29T22:29:55.240Z,69.00
2022-07-29T22:32:22.806Z,69.20
2022-07-29T22:34:50.378Z,69.70
2022-07-29T22:37:17.991Z,69.20
2022-07-29T22:39:46.344Z,70.10
2022-07-29T22:42:13.919Z,70.10
2022-07-29T22:44:42.368Z,71.70
2022-07-29T22:47:09.942Z,71.20
2022-07-29T22:49:37.515Z,71.80
2022-07-29T22:52:06.901Z,71.80
2022-07-29T22:54:34.475Z,72.20
2022-07-29T22:57:02.426Z,71.60
2022-07-29T22:59:30.413Z,73.30
2022-07-29T23:01:58.056Z,72.50
2022-07-29T23:04:26.328Z,73.50
2022-07-29T23:06:53.942Z,73.40
2022-07-29T23:09:21.555Z,73.80
2022-07-29T23:11:49.090Z,74.60
2022-07-29T23:14:17.728Z,74.20
2022-07-29T23:16:46.162Z,74.70
2022-07-29T23:19:13.655Z,74.60
2022-07-29T23:21:42.025Z,75.80
2022-07-29T23:24:09.610Z,75.70
2022-07-29T23:26:37.944Z,75.60
2022-07-29T23:29:05.545Z,75.50
2022-07-29T23:31:33.888Z,77.40
2022-07-29T23:34:01.461Z,77.40
2022-07-29T23:36:29.065Z,76.70
2022-07-29T23:38:56.629Z,77.50
2022-07-29T23:41:24.203Z,77.20
2022-07-29T23:43:51.797Z,77.70
2022-07-29T23:46:23.951Z,78.50
2022-07-29T23:48:46.982Z,79.10
2022-07-29T23:51:15.297Z,80.10
2022-07-29T23:53:53.400Z,80.70
2022-07-29T23:56:10.449Z,80.20
2022-07-29T23:58:38.040Z,80.50
